createdAt,value
2019-04-26T00:02:04.037Z,98341.86
2019-04-26T00:04:33.761Z,98335.75
2019-04-26T00:07:03.587Z,98314.98
2019-04-26T00:09:38.344Z,98329.39
2019-04-26T00:12:11.314Z,98339.63
2019-04-26T00:14:59.276Z,98331.34
2019-04-26T00:17:33.110Z,98325.27
2019-04-26T00:20:02.876Z,98321.77
2019-04-26T00:22:32.707Z,98325.47
2019-04-26T00:25:02.266Z,98312.86
2019-04-26T00:27:32.026Z,98317.47
2019-04-26T00:30:01.522Z,98340.17
2019-04-26T00:32:31.342Z,98349.42
2019-04-26T00:35:00.832Z,98350.49
2019-04-26T00:37:30.307Z,98352.84
2019-04-26T00:39:59.806Z,98345.35
2019-04-26T00:42:30.187Z,98342.86
2019-04-26T00:45:00.347Z,98341.38
2019-04-26T00:47:30.352Z,98333.22
2019-04-26T00:50:01.569Z,98323.87
2019-04-26T00:52:32.023Z,98324.11
2019-04-26T00:55:02.040Z,98332.61
2019-04-26T00:57:33.514Z,98342.20
2019-04-26T01:00:05.710Z,98357.22
2019-04-26T01:02:36.842Z,98349.98
2019-04-26T01:05:07.043Z,98352.22
2019-04-26T01:07:36.483Z,98352.10
2019-04-26T01:10:06.532Z,98362.55
2019-04-26T01:12:36.274Z,98364.69
2019-04-26T01:15:07.928Z,98363.58
2019-04-26T01:17:37.650Z,98354.17
2019-04-26T01:20:08.204Z,98354.53
2019-04-26T01:22:42.355Z,98363.97
2019-04-26T01:25:25.553Z,98366.75
2019-04-26T01:27:54.985Z,98371.14
2019-04-26T01:30:25.847Z,98355.28
2019-04-26T01:32:55.360Z,98355.61
2019-04-26T01:35:34.326Z,98366.92
2019-04-26T01:38:06.719Z,98369.13
2019-04-26T01:40:37.828Z,98379.51
2019-04-26T01:43:25.216Z,98365.12
2019-04-26T01:45:59.375Z,98370.77
2019-04-26T01:48:46.000Z,98379.58
2019-04-26T01:51:22.824Z,98378.59
2019-04-26T01:53:53.492Z,98378.59
2019-04-26T01:56:27.817Z,98377.35
2019-04-26T01:58:57.335Z,98377.39
2019-04-26T02:01:44.430Z,98385.21
2019-04-26T02:04:14.014Z,98383.34
2019-04-26T02:06:43.455Z,98374.41
2019-04-26T02:09:13.461Z,98370.45
2019-04-26T02:11:44.048Z,98377.93
2019-04-26T02:14:13.592Z,98388.89
2019-04-26T02:16:43.145Z,98395.64
2019-04-26T02:19:12.885Z,98396.98
2019-04-26T02:21:47.931Z,98385.84
2019-04-26T02:24:28.024Z,98386.31
2019-04-26T02:26:58.034Z,98384.59
2019-04-26T02:29:28.781Z,98391.09
2019-04-26T02:32:02.195Z,98392.33
2019-04-26T02:34:36.071Z,98393.93
2019-04-26T02:37:08.577Z,98391.09
2019-04-26T02:39:42.681Z,98391.88
2019-04-26T02:42:32.942Z,98381.66
2019-04-26T02:45:19.209Z,98398.88
2019-04-26T02:47:54.919Z,98403.45
2019-04-26T02:50:34.822Z,98397.66
2019-04-26T02:53:20.860Z,98392.55
2019-04-26T02:56:16.508Z,98396.66
2019-04-26T02:59:03.223Z,98408.55
2019-04-26T03:01:34.475Z,98419.88
2019-04-26T03:04:04.474Z,98411.78
2019-04-26T03:06:36.780Z,98396.55
2019-04-26T03:09:07.996Z,98383.14
2019-04-26T03:11:48.036Z,98374.85
2019-04-26T03:14:21.971Z,98368.28
2019-04-26T03:16:57.749Z,98375.95
2019-04-26T03:19:53.749Z,98381.45
2019-04-26T03:22:48.820Z,98384.13
2019-04-26T03:25:33.316Z,98394.11
2019-04-26T03:28:29.006Z,98389.78
2019-04-26T03:31:15.106Z,98401.49
2019-04-26T03:34:10.520Z,98396.21
2019-04-26T03:37:20.623Z,98397.67
2019-04-26T03:40:01.230Z,98401.35
2019-04-26T03:42:51.944Z,98398.17
2019-04-26T03:45:36.420Z,98401.44
2019-04-26T03:48:52.856Z,98400.03
2019-04-26T03:51:49.981Z,98400.09
2019-04-26T03:54:26.751Z,98390.64
2019-04-26T03:57:13.566Z,98389.88
2019-04-26T03:59:54.383Z,98405.40
2019-04-26T04:02:53.189Z,98415.55
2019-04-26T04:05:47.812Z,98415.09
2019-04-26T04:08:38.489Z,98408.37
2019-04-26T04:11:15.026Z,98409.33
2019-04-26T04:13:51.310Z,98418.41
2019-04-26T04:16:50.890Z,98437.36
2019-04-26T04:20:01.762Z,98431.66
2019-04-26T04:22:45.875Z,98429.20
2019-04-26T04:25:40.018Z,98428.80
2019-04-26T04:28:49.414Z,98418.94
2019-04-26T04:31:29.584Z,98417.12
2019-04-26T04:34:09.538Z,98415.63
2019-04-26T04:36:46.886Z,98435.96
2019-04-26T04:39:32.793Z,98449.88
2019-04-26T04:42:11.269Z,98445.47
2019-04-26T04:45:04.128Z,98440.11
2019-04-26T04:48:14.642Z,98446.02
2019-04-26T04:50:51.214Z,98455.20
2019-04-26T04:53:41.200Z,98459.39
2019-04-26T04:56:43.602Z,98466.66
2019-04-26T04:59:39.083Z,98463.18
2019-04-26T05:02:48.654Z,98470.05
2019-04-26T05:05:30.826Z,98474.73
2019-04-26T05:08:16.933Z,98468.17
2019-04-26T05:11:14.993Z,98483.67
2019-04-26T05:13:54.930Z,98478.16
2019-04-26T05:17:16.527Z,98482.83
2019-04-26T05:20:28.151Z,98499.41
2019-04-26T05:23:27.561Z,98488.72
2019-04-26T05:26:42.157Z,98499.74
2019-04-26T05:29:27.296Z,98519.23
2019-04-26T05:32:27.519Z,98524.87
2019-04-26T05:35:42.088Z,98520.00
2019-04-26T05:38:53.267Z,98520.53
2019-04-26T05:42:00.711Z,98519.20
2019-04-26T05:44:45.215Z,98523.67
2019-04-26T05:47:33.253Z,98527.59
2019-04-26T05:50:43.763Z,98539.34
2019-04-26T05:53:55.406Z,98546.70
2019-04-26T05:56:48.581Z,98557.16
2019-04-26T05:59:37.935Z,98569.48
2019-04-26T06:02:32.223Z,98559.83
2019-04-26T06:05:28.655Z,98571.71
2019-04-26T06:08:38.694Z,98574.30
2019-04-26T06:11:14.473Z,98575.59
2019-04-26T06:14:34.792Z,98576.27
2019-04-26T06:17:38.838Z,98575.28
2019-04-26T06:20:28.096Z,98565.76
2019-04-26T06:23:18.760Z,98568.35
2019-04-26T06:26:03.338Z,98575.95
2019-04-26T06:28:56.405Z,98577.16
2019-04-26T06:31:36.070Z,98581.94
2019-04-26T06:36:32.375Z,98583.05
2019-04-26T06:39:14.109Z,98599.58
2019-04-26T06:42:08.604Z,98605.74
2019-04-26T06:45:19.820Z,98617.36
2019-04-26T06:48:02.309Z,98609.22
2019-04-26T06:50:59.752Z,98610.60
2019-04-26T06:53:54.981Z,98621.50
2019-04-26T06:56:50.388Z,98639.20
2019-04-26T06:59:48.778Z,98641.20
2019-04-26T07:02:51.968Z,98637.21
2019-04-26T07:05:28.187Z,98644.05
2019-04-26T07:08:42.856Z,98626.09
2019-04-26T07:11:44.176Z,98641.73
2019-04-26T07:15:05.982Z,98644.14
2019-04-26T07:18:12.894Z,98640.25
2019-04-26T07:21:14.715Z,98643.73
2019-04-26T07:24:09.902Z,98651.65
2019-04-26T07:27:10.959Z,98657.62
2019-04-26T07:30:06.217Z,98654.69
2019-04-26T07:33:04.158Z,98660.88
2019-04-26T07:35:50.208Z,98669.50
2019-04-26T07:38:54.151Z,98664.97
2019-04-26T07:41:51.480Z,98673.20
2019-04-26T07:44:36.002Z,98682.04
2019-04-26T07:47:39.983Z,98693.86
2019-04-26T07:50:28.928Z,98700.24
2019-04-26T07:53:33.628Z,98696.63
2019-04-26T07:56:13.562Z,98713.68
2019-04-26T07:59:08.671Z,98715.35
2019-04-26T08:02:03.737Z,98721.37
2019-04-26T08:04:41.777Z,98719.23
2019-04-26T08:07:21.672Z,98724.05
2019-04-26T08:09:59.989Z,98730.28
2019-04-26T08:12:33.071Z,98731.81
2019-04-26T08:15:09.262Z,98736.98
2019-04-26T08:17:46.530Z,98740.92
2019-04-26T08:20:48.459Z,98724.66
2019-04-26T08:23:39.264Z,98734.61
2019-04-26T08:25:57.935Z,98727.00
2019-04-26T08:28:31.132Z,98731.25
2019-04-26T08:31:05.958Z,98741.31
2019-04-26T08:33:48.553Z,98749.15
2019-04-26T08:36:17.613Z,98746.16
2019-04-26T08:38:52.433Z,98749.59
2019-04-26T08:41:22.607Z,98744.74
2019-04-26T08:44:03.724Z,98747.54
2019-04-26T08:46:47.696Z,98748.31
2019-04-26T08:49:19.286Z,98750.45
2019-04-26T08:51:52.175Z,98765.49
2019-04-26T08:54:24.122Z,98775.92
2019-04-26T08:57:00.933Z,98780.95
2019-04-26T08:59:37.134Z,98773.04
2019-04-26T09:02:24.852Z,98770.66
2019-04-26T09:05:07.198Z,98781.42
2019-04-26T09:07:41.108Z,98782.03
2019-04-26T09:10:14.324Z,98790.64
2019-04-26T09:12:45.758Z,98799.55
2019-04-26T09:15:19.895Z,98801.45
2019-04-26T09:17:49.667Z,98797.81
2019-04-26T09:20:28.504Z,98801.69
2019-04-26T09:23:03.823Z,98798.78
2019-04-26T09:25:37.061Z,98791.26
2019-04-26T09:28:15.615Z,98784.23
2019-04-26T09:31:01.379Z,98771.96
2019-04-26T09:33:44.925Z,98794.13
2019-04-26T09:36:14.488Z,98805.42
2019-04-26T09:38:44.284Z,98810.20
2019-04-26T09:41:14.026Z,98804.33
2019-04-26T09:43:47.707Z,98801.73
2019-04-26T09:46:29.090Z,98801.37
2019-04-26T09:49:03.075Z,98807.77
2019-04-26T09:51:34.851Z,98811.03
2019-04-26T09:54:02.538Z,98822.53
2019-04-26T09:56:32.227Z,98826.73
2019-04-26T09:59:05.569Z,98817.27
2019-04-26T10:01:33.599Z,98831.14
2019-04-26T10:04:03.045Z,98827.63
2019-04-26T10:06:32.485Z,98827.02
2019-04-26T10:09:02.190Z,98827.19
2019-04-26T10:11:33.516Z,98821.16
2019-04-26T10:14:04.598Z,98814.39
2019-04-26T10:16:37.580Z,98805.33
2019-04-26T10:19:08.851Z,98803.95
2019-04-26T10:21:38.297Z,98802.13
2019-04-26T10:24:08.415Z,98804.11
2019-04-26T10:26:38.450Z,98796.34
2019-04-26T10:29:08.043Z,98797.31
2019-04-26T10:31:37.650Z,98786.88
2019-04-26T10:34:07.648Z,98793.35
2019-04-26T10:36:38.459Z,98785.81
2019-04-26T10:39:10.233Z,98788.64
2019-04-26T10:41:39.931Z,98790.73
2019-04-26T10:44:10.133Z,98798.22
2019-04-26T10:46:39.579Z,98805.76
2019-04-26T10:49:47.390Z,98808.44
2019-04-26T10:52:25.242Z,98811.78
2019-04-26T10:55:05.923Z,98822.60
2019-04-26T10:57:41.228Z,98819.04
2019-04-26T11:00:23.715Z,98826.20
2019-04-26T11:02:53.268Z,98826.33
2019-04-26T11:05:23.130Z,98837.86
2019-04-26T11:07:53.493Z,98845.74
2019-04-26T11:10:27.629Z,98845.53
2019-04-26T11:12:57.060Z,98844.84
2019-04-26T11:15:29.052Z,98836.08
2019-04-26T11:17:58.012Z,98826.94
2019-04-26T11:20:28.043Z,98826.87
2019-04-26T11:22:57.475Z,98835.70
2019-04-26T11:25:28.161Z,98838.53
2019-04-26T11:27:58.094Z,98837.77
2019-04-26T11:30:27.615Z,98826.81
2019-04-26T11:32:57.049Z,98827.42
2019-04-26T11:35:29.321Z,98829.48
2019-04-26T11:37:57.762Z,98837.53
2019-04-26T11:40:27.464Z,98836.41
2019-04-26T11:42:57.168Z,98840.44
2019-04-26T11:45:26.877Z,98843.12
2019-04-26T11:47:56.753Z,98844.33
2019-04-26T11:50:26.465Z,98853.16
2019-04-26T11:52:55.892Z,98862.54
2019-04-26T11:55:29.632Z,98859.71
2019-04-26T11:57:56.965Z,98855.50
2019-04-26T12:00:28.041Z,98850.25
2019-04-26T12:02:57.750Z,98848.50
2019-04-26T12:05:44.311Z,98848.14
2019-04-26T12:08:13.514Z,98843.72
2019-04-26T12:10:44.399Z,98850.41
2019-04-26T12:13:14.384Z,98849.71
2019-04-26T12:15:45.411Z,98845.14
2019-04-26T12:18:15.229Z,98834.15
2019-04-26T12:20:44.727Z,98823.55
2019-04-26T12:23:20.328Z,98819.78
2019-04-26T12:25:48.085Z,98829.12
2019-04-26T12:28:17.391Z,98846.13
2019-04-26T12:30:47.136Z,98838.09
2019-04-26T12:33:16.574Z,98853.74
2019-04-26T12:35:46.016Z,98855.24
2019-04-26T12:38:15.460Z,98842.14
2019-04-26T12:40:46.124Z,98836.41
2019-04-26T12:43:20.012Z,98834.86
2019-04-26T12:45:51.526Z,98835.93
2019-04-26T12:48:26.162Z,98838.70
2019-04-26T12:50:55.835Z,98847.80
2019-04-26T12:53:26.731Z,98845.27
2019-04-26T12:55:58.409Z,98849.61
2019-04-26T12:58:28.277Z,98854.42
2019-04-26T13:00:59.109Z,98859.84
2019-04-26T13:03:29.320Z,98865.81
2019-04-26T13:06:00.245Z,98873.94
2019-04-26T13:08:29.982Z,98878.07
2019-04-26T13:11:02.034Z,98876.70
2019-04-26T13:13:33.352Z,98880.72
2019-04-26T13:16:26.349Z,98874.88
2019-04-26T13:18:53.814Z,98881.08
2019-04-26T13:21:23.260Z,98884.17
2019-04-26T13:23:53.017Z,98885.72
2019-04-26T13:26:22.723Z,98892.03
2019-04-26T13:28:56.561Z,98905.08
2019-04-26T13:31:31.105Z,98910.03
2019-04-26T13:33:58.318Z,98919.20
2019-04-26T13:36:29.071Z,98917.30
2019-04-26T13:38:57.720Z,98923.70
2019-04-26T13:41:28.010Z,98926.30
2019-04-26T13:44:01.204Z,98933.77
2019-04-26T13:46:45.717Z,98930.17
2019-04-26T13:49:18.151Z,98932.77
2019-04-26T13:51:48.679Z,98926.20
2019-04-26T13:54:21.172Z,98929.56
2019-04-26T13:56:49.576Z,98926.66
2019-04-26T13:59:19.353Z,98924.47
2019-04-26T14:01:49.059Z,98928.96
2019-04-26T14:04:18.517Z,98934.75
2019-04-26T14:06:47.947Z,98935.59
2019-04-26T14:09:17.378Z,98940.78
2019-04-26T14:11:46.845Z,98940.52
2019-04-26T14:14:16.278Z,98940.77
2019-04-26T14:16:45.725Z,98934.37
2019-04-26T14:19:16.761Z,98928.70
2019-04-26T14:21:47.481Z,98929.55
2019-04-26T14:24:19.777Z,98930.32
2019-04-26T14:26:51.890Z,98924.69
2019-04-26T14:29:21.327Z,98923.31
2019-04-26T14:31:53.111Z,98932.22
2019-04-26T14:34:23.281Z,98917.74
2019-04-26T14:37:05.793Z,98921.02
2019-04-26T14:39:38.402Z,98918.58
2019-04-26T14:41:57.118Z,98910.71
2019-04-26T14:44:30.941Z,98906.69
2019-04-26T14:46:58.500Z,98903.70
2019-04-26T14:49:38.581Z,98901.56
2019-04-26T14:51:59.348Z,98905.36
2019-04-26T14:54:28.847Z,98898.34
2019-04-26T14:56:59.859Z,98888.33
2019-04-26T14:59:47.206Z,98890.04
2019-04-26T15:02:27.272Z,98889.06
2019-04-26T15:05:15.091Z,98898.41
2019-04-26T15:07:50.976Z,98889.24
2019-04-26T15:10:17.365Z,98893.89
2019-04-26T15:12:48.907Z,98897.48
2019-04-26T15:15:17.996Z,98898.91
2019-04-26T15:17:47.732Z,98902.45
2019-04-26T15:20:20.827Z,98913.23
2019-04-26T15:22:50.131Z,98909.20
2019-04-26T15:25:19.550Z,98905.13
2019-04-26T15:27:49.026Z,98908.16
2019-04-26T15:30:18.433Z,98919.00
2019-04-26T15:32:48.122Z,98926.75
2019-04-26T15:35:18.158Z,98922.81
2019-04-26T15:37:47.947Z,98920.21
2019-04-26T15:40:34.886Z,98916.09
2019-04-26T15:43:14.874Z,98915.81
2019-04-26T15:45:55.501Z,98917.16
2019-04-26T15:48:43.066Z,98921.63
2019-04-26T15:51:14.656Z,98909.97
2019-04-26T15:53:48.694Z,98907.34
2019-04-26T15:56:17.724Z,98907.16
2019-04-26T15:58:48.945Z,98900.41
2019-04-26T16:01:18.475Z,98899.03
2019-04-26T16:03:48.179Z,98897.09
2019-04-26T16:06:17.923Z,98901.08
2019-04-26T16:08:47.633Z,98910.56
2019-04-26T16:11:17.082Z,98905.79
2019-04-26T16:13:53.864Z,98909.90
2019-04-26T16:16:20.577Z,98910.41
2019-04-26T16:18:53.397Z,98907.50
2019-04-26T16:21:21.816Z,98916.68
2019-04-26T16:23:55.134Z,98915.96
2019-04-26T16:26:23.280Z,98920.43
2019-04-26T16:29:04.578Z,98915.59
2019-04-26T16:31:34.335Z,98922.98
2019-04-26T16:34:10.452Z,98919.77
2019-04-26T16:36:43.839Z,98917.75
2019-04-26T16:39:13.100Z,98916.91
2019-04-26T16:41:42.621Z,98919.80
2019-04-26T16:44:13.021Z,98928.80
2019-04-26T16:46:43.838Z,98935.70
2019-04-26T16:49:14.252Z,98938.84
2019-04-26T16:51:43.817Z,98927.50
2019-04-26T16:56:44.796Z,98922.80
2019-04-26T16:59:22.674Z,98929.19
2019-04-26T17:01:47.468Z,98920.42
2019-04-26T17:04:20.161Z,98922.08
2019-04-26T17:06:48.837Z,98929.78
2019-04-26T17:09:18.299Z,98932.72
2019-04-26T17:09:38.415Z,98920.34
2019-04-26T17:11:47.723Z,98929.05
2019-04-26T17:14:17.447Z,98921.27
2019-04-26T17:16:46.898Z,98930.03
2019-04-26T17:19:16.575Z,98931.59
2019-04-26T17:21:56.521Z,98932.63
2019-04-26T17:24:26.973Z,98935.02
2019-04-26T17:27:05.384Z,98939.48
2019-04-26T17:29:35.485Z,98936.69
2019-04-26T17:32:09.104Z,98943.20
2019-04-26T17:34:40.249Z,98946.17
2019-04-26T17:37:12.769Z,98946.20
2019-04-26T17:39:40.801Z,98947.63
2019-04-26T17:42:10.670Z,98952.20
2019-04-26T17:44:41.279Z,98954.80
2019-04-26T17:47:10.772Z,98952.97
2019-04-26T17:49:43.758Z,98951.95
2019-04-26T17:52:11.979Z,98942.00
2019-04-26T17:54:48.816Z,98947.89
2019-04-26T17:57:15.144Z,98947.48
2019-04-26T17:59:47.765Z,98953.61
2019-04-26T18:02:31.558Z,98955.05
2019-04-26T18:04:58.039Z,98960.16
2019-04-26T18:07:37.582Z,98958.94
2019-04-26T18:09:50.696Z,98959.31
2019-04-26T18:12:21.307Z,98955.64
2019-04-26T18:14:50.745Z,98965.88
2019-04-26T18:17:23.176Z,98961.54
2019-04-26T18:20:00.675Z,98964.06
2019-04-26T18:22:36.617Z,98964.83
2019-04-26T18:25:11.287Z,98967.28
2019-04-26T18:27:39.047Z,98966.06
2019-04-26T18:30:12.251Z,98965.30
2019-04-26T18:32:45.734Z,98965.06
2019-04-26T18:35:15.221Z,98961.58
2019-04-26T18:37:43.796Z,98962.48
2019-04-26T18:40:13.502Z,98966.77
2019-04-26T18:42:43.457Z,98963.57
2019-04-26T18:45:13.923Z,98968.89
2019-04-26T18:47:45.263Z,98976.38
2019-04-26T18:50:18.754Z,98975.45
2019-04-26T18:52:52.954Z,98972.84
2019-04-26T18:55:29.183Z,98972.55
2019-04-26T18:58:01.508Z,98976.38
2019-04-26T19:00:29.607Z,98982.94
2019-04-26T19:03:00.101Z,98981.73
2019-04-26T19:05:30.283Z,98977.97
2019-04-26T19:07:59.777Z,98975.78
2019-04-26T19:10:29.476Z,98978.30
2019-04-26T19:13:07.270Z,98975.18
2019-04-26T19:15:44.029Z,98974.46
2019-04-26T19:18:15.427Z,98972.69
2019-04-26T19:20:47.548Z,98975.77
2019-04-26T19:23:17.046Z,98969.28
2019-04-26T19:25:46.801Z,98971.55
2019-04-26T19:28:16.251Z,98973.03
2019-04-26T19:30:49.336Z,98970.18
2019-04-26T19:33:18.505Z,98971.95
2019-04-26T19:35:48.291Z,98966.21
2019-04-26T19:38:17.803Z,98972.41
2019-04-26T19:40:48.075Z,98973.38
2019-04-26T19:43:28.154Z,98979.86
2019-04-26T19:45:51.885Z,98981.23
2019-04-26T19:48:25.892Z,98975.84
2019-04-26T19:50:56.250Z,98977.06
2019-04-26T19:53:42.652Z,98980.17
2019-04-26T19:56:27.716Z,98981.63
2019-04-26T19:58:57.696Z,98981.46
2019-04-26T20:01:28.787Z,98976.96
2019-04-26T20:03:58.231Z,98978.34
2019-04-26T20:06:27.985Z,98984.66
2019-04-26T20:08:57.426Z,98986.40
2019-04-26T20:11:26.894Z,98987.00
2019-04-26T20:13:56.307Z,98980.52
2019-04-26T20:16:26.123Z,98985.33
2019-04-26T20:18:55.528Z,98985.56
2019-04-26T20:21:25.232Z,98981.36
2019-04-26T20:23:54.934Z,98986.63
2019-04-26T20:26:24.369Z,98991.41
2019-04-26T20:28:53.812Z,98991.64
2019-04-26T20:31:25.284Z,98997.83
2019-04-26T20:33:54.731Z,98992.31
2019-04-26T20:36:24.495Z,98988.08
2019-04-26T20:38:53.941Z,98992.48
2019-04-26T20:41:23.718Z,98996.59
2019-04-26T20:44:05.223Z,98998.44
2019-04-26T20:46:25.198Z,98996.58
2019-04-26T20:48:54.702Z,98996.97
2019-04-26T20:51:24.504Z,98992.03
2019-04-26T20:53:53.946Z,98993.54
2019-04-26T20:56:23.719Z,98995.44
2019-04-26T20:58:53.175Z,98996.19
2019-04-26T21:01:22.600Z,99000.69
2019-04-26T21:03:52.047Z,99002.50
2019-04-26T21:06:22.299Z,99004.98
2019-04-26T21:08:54.028Z,99000.59
2019-04-26T21:11:23.369Z,99002.28
2019-04-26T21:13:53.210Z,99003.80
2019-04-26T21:16:23.021Z,98999.97
2019-04-26T21:18:52.575Z,99006.25
2019-04-26T21:21:22.287Z,99007.22
2019-04-26T21:23:52.558Z,99005.16
2019-04-26T21:26:26.618Z,99004.42
2019-04-26T21:29:06.644Z,99010.82
2019-04-26T21:31:40.910Z,99006.64
2019-04-26T21:34:13.868Z,99011.56
2019-04-26T21:36:44.116Z,99015.18
2019-04-26T21:39:31.665Z,99023.87
2019-04-26T21:42:03.562Z,99027.88
2019-04-26T21:44:33.897Z,99025.69
2019-04-26T21:47:04.893Z,99036.82
2019-04-26T21:49:36.681Z,99028.39
2019-04-26T21:52:05.976Z,99038.92
2019-04-26T21:54:35.759Z,99039.34
2019-04-26T21:57:05.466Z,99049.91
2019-04-26T21:59:40.878Z,99050.58
2019-04-26T22:02:07.520Z,99053.48
2019-04-26T22:04:37.766Z,99056.27
2019-04-26T22:07:07.857Z,99061.58
2019-04-26T22:09:52.802Z,99064.69
2019-04-26T22:12:23.310Z,99061.39
2019-04-26T22:14:58.016Z,99061.18
2019-04-26T22:17:30.484Z,99056.55
2019-04-26T22:20:06.631Z,99052.78
2019-04-26T22:22:53.142Z,99059.33
2019-04-26T22:25:24.227Z,99056.08
2019-04-26T22:28:00.088Z,99061.20
2019-04-26T22:30:28.286Z,99062.38
2019-04-26T22:32:58.556Z,99061.16
2019-04-26T22:35:28.445Z,99058.56
2019-04-26T22:37:57.885Z,99063.67
2019-04-26T22:40:27.339Z,99060.12
2019-04-26T22:42:58.712Z,99064.33
2019-04-26T22:45:39.537Z,99056.50
2019-04-26T22:48:11.510Z,99055.75
2019-04-26T22:50:41.095Z,99056.83
2019-04-26T22:53:13.243Z,99054.78
2019-04-26T22:55:43.577Z,99059.03
2019-04-26T22:58:13.586Z,99055.48
2019-04-26T23:00:43.969Z,99051.03
2019-04-26T23:03:14.396Z,99059.02
2019-04-26T23:05:44.102Z,99062.19
2019-04-26T23:08:13.805Z,99055.00
2019-04-26T23:10:45.161Z,99057.34
2019-04-26T23:13:25.208Z,99055.64
2019-04-26T23:16:14.380Z,99053.12
2019-04-26T23:18:46.645Z,99056.87
2019-04-26T23:21:18.042Z,99054.36
2019-04-26T23:23:47.723Z,99064.97
2019-04-26T23:26:17.161Z,99062.63
2019-04-26T23:28:46.607Z,99054.77
2019-04-26T23:31:16.038Z,99058.69
2019-04-26T23:33:45.818Z,99057.22
2019-04-26T23:36:18.444Z,99057.09
2019-04-26T23:38:46.674Z,99063.86
2019-04-26T23:41:16.115Z,99061.20
2019-04-26T23:43:45.889Z,99054.37
2019-04-26T23:46:18.887Z,99057.53
2019-04-26T23:48:49.616Z,99047.33
2019-04-26T23:51:17.622Z,99052.36
2019-04-26T23:53:50.490Z,99058.89
2019-04-26T23:56:22.239Z,99054.74
2019-04-26T23:58:49.932Z,99058.17
